createdAt,value
2022-09-15T00:01:12.307Z,3.08
2022-09-15T00:03:40.632Z,3.22
2022-09-15T00:06:08.885Z,3.17
2022-09-15T00:08:36.272Z,3.33
2022-09-15T00:11:15.485Z,3.20
2022-09-15T00:13:43.728Z,3.25
2022-09-15T00:16:15.029Z,3.80
2022-09-15T00:18:44.088Z,3.28
2022-09-15T00:21:18.961Z,3.10
2022-09-15T00:23:47.876Z,3.65
2022-09-15T00:26:18.107Z,2.88
2022-09-15T00:28:46.108Z,2.95
2022-09-15T00:31:16.337Z,4.55
2022-09-15T00:33:47.717Z,3.33
2022-09-15T00:36:16.008Z,3.05
2022-09-15T00:38:43.787Z,2.90
2022-09-15T00:41:13.998Z,3.40
2022-09-15T00:43:58.177Z,3.20
2022-09-15T00:46:30.096Z,3.33
2022-09-15T00:49:13.220Z,3.80
2022-09-15T00:51:47.669Z,3.95
2022-09-15T00:54:23.313Z,3.67
2022-09-15T00:56:55.060Z,4.13
2022-09-15T00:59:26.232Z,3.58
2022-09-15T01:02:07.725Z,3.60
2022-09-15T01:04:35.311Z,3.70
2022-09-15T01:07:05.588Z,3.47
2022-09-15T01:09:50.546Z,3.70
2022-09-15T01:12:18.808Z,3.70
2022-09-15T01:14:46.338Z,3.50
2022-09-15T01:17:13.815Z,3.70
2022-09-15T01:20:00.156Z,3.58
2022-09-15T01:22:41.541Z,4.03
2022-09-15T01:25:14.354Z,3.95
2022-09-15T01:27:56.513Z,3.75
2022-09-15T01:30:24.791Z,4.00
2022-09-15T01:33:39.896Z,4.20
2022-09-15T01:36:18.593Z,4.50
2022-09-15T01:38:52.101Z,3.97
2022-09-15T01:41:55.538Z,4.00
2022-09-15T01:44:27.869Z,4.37
2022-09-15T01:47:00.521Z,3.45
2022-09-15T01:49:36.491Z,3.67
2022-09-15T01:52:05.293Z,3.60
2022-09-15T01:54:40.062Z,3.95
2022-09-15T01:57:07.458Z,3.95
2022-09-15T01:59:34.943Z,4.00
2022-09-15T02:02:11.884Z,3.92
2022-09-15T02:05:06.021Z,4.47
2022-09-15T02:07:39.180Z,3.55
2022-09-15T02:10:22.380Z,3.72
2022-09-15T02:13:17.163Z,4.03
2022-09-15T02:15:51.719Z,4.10
2022-09-15T02:18:41.789Z,3.65
2022-09-15T02:21:24.106Z,3.70
2022-09-15T02:23:57.290Z,3.80
2022-09-15T02:26:27.806Z,4.07
2022-09-15T02:28:59.156Z,3.95
2022-09-15T02:31:28.155Z,3.67
2022-09-15T02:34:00.586Z,3.65
2022-09-15T02:36:29.482Z,4.18
2022-09-15T02:39:06.704Z,4.00
2022-09-15T02:41:36.677Z,3.78
2022-09-15T02:44:04.248Z,4.00
2022-09-15T02:46:31.756Z,3.58
2022-09-15T02:48:59.133Z,4.53
2022-09-15T02:51:26.590Z,5.80
2022-09-15T02:53:54.728Z,7.05
2022-09-15T02:56:22.354Z,5.80
2022-09-15T02:58:49.730Z,5.55
2022-09-15T03:01:17.481Z,4.65
2022-09-15T03:03:46.067Z,4.82
2022-09-15T03:06:17.204Z,4.03
2022-09-15T03:08:52.982Z,4.10
2022-09-15T03:11:22.842Z,3.88
2022-09-15T03:13:57.666Z,3.65
2022-09-15T03:16:26.036Z,3.70
2022-09-15T03:18:55.718Z,3.60
2022-09-15T03:21:23.238Z,3.88
2022-09-15T03:23:50.947Z,4.03
2022-09-15T03:26:18.476Z,4.15
2022-09-15T03:28:45.828Z,3.53
2022-09-15T03:31:13.387Z,4.10
2022-09-15T03:33:40.791Z,3.75
2022-09-15T03:36:08.984Z,3.78
2022-09-15T03:38:36.310Z,3.53
2022-09-15T03:41:11.300Z,3.75
2022-09-15T03:43:39.398Z,3.90
2022-09-15T03:46:09.390Z,4.10
2022-09-15T03:48:37.118Z,3.70
2022-09-15T03:51:05.777Z,3.78
2022-09-15T03:53:39.172Z,4.15
2022-09-15T03:58:38.012Z,3.80
2022-09-15T04:01:05.509Z,3.75
2022-09-15T04:03:33.068Z,4.00
2022-09-15T04:06:00.632Z,3.67
2022-09-15T04:08:28.126Z,3.40
2022-09-15T04:10:55.546Z,3.20
2022-09-15T04:13:28.430Z,3.45
2022-09-15T04:16:01.141Z,3.20
2022-09-15T04:18:30.228Z,3.07
2022-09-15T04:21:02.045Z,3.10
2022-09-15T04:23:29.811Z,3.20
2022-09-15T04:25:59.719Z,3.17
2022-09-15T04:28:28.012Z,3.03
2022-09-15T04:31:07.499Z,2.92
2022-09-15T04:33:36.103Z,3.00
2022-09-15T04:36:06.588Z,3.17
2022-09-15T04:38:35.343Z,3.03
2022-09-15T04:41:04.087Z,3.58
2022-09-15T04:43:32.796Z,3.30
2022-09-15T04:46:00.100Z,3.30
2022-09-15T04:48:27.525Z,3.28
2022-09-15T04:50:54.938Z,3.67
2022-09-15T04:53:22.355Z,3.50
2022-09-15T04:55:49.770Z,3.05
2022-09-15T04:58:17.121Z,3.08
2022-09-15T05:00:44.473Z,3.95
2022-09-15T05:03:13.992Z,3.13
2022-09-15T05:05:41.431Z,3.17
2022-09-15T05:08:08.850Z,3.63
2022-09-15T05:10:38.238Z,3.60
2022-09-15T05:13:05.808Z,3.33
2022-09-15T05:15:33.431Z,3.45
2022-09-15T05:18:01.355Z,3.70
2022-09-15T05:20:29.819Z,4.53
2022-09-15T05:22:57.337Z,4.40
2022-09-15T05:25:25.063Z,4.13
2022-09-15T05:27:52.503Z,4.32
2022-09-15T05:33:07.469Z,4.40
2022-09-15T05:35:34.945Z,4.05
2022-09-15T05:38:02.999Z,3.85
2022-09-15T05:40:30.596Z,3.97
2022-09-15T05:42:58.284Z,4.45
2022-09-15T05:45:25.764Z,4.75
2022-09-15T05:47:53.118Z,3.53
2022-09-15T05:50:20.717Z,4.28
2022-09-15T05:52:51.440Z,4.53
2022-09-15T05:55:18.898Z,3.72
2022-09-15T05:57:46.236Z,3.70
2022-09-15T06:00:14.109Z,3.17
2022-09-15T06:02:41.566Z,3.97
2022-09-15T06:05:09.314Z,3.17
2022-09-15T06:07:37.133Z,3.53
2022-09-15T06:10:04.986Z,3.33
2022-09-15T06:12:32.404Z,3.50
2022-09-15T06:14:59.907Z,3.75
2022-09-15T06:17:27.309Z,3.15
2022-09-15T06:19:55.111Z,3.50
2022-09-15T06:22:22.572Z,3.45
2022-09-15T06:24:50.179Z,3.00
2022-09-15T06:27:17.861Z,3.63
2022-09-15T06:29:45.250Z,3.80
2022-09-15T06:32:12.863Z,3.60
2022-09-15T06:34:40.381Z,2.60
2022-09-15T06:37:08.285Z,3.20
2022-09-15T06:39:35.791Z,2.78
2022-09-15T06:42:05.633Z,3.33
2022-09-15T06:44:35.566Z,3.38
2022-09-15T06:47:04.137Z,3.22
2022-09-15T06:49:31.836Z,3.03
2022-09-15T06:52:01.908Z,3.10
2022-09-15T06:54:29.336Z,3.17
2022-09-15T06:56:56.760Z,3.80
2022-09-15T06:59:24.738Z,3.85
2022-09-15T07:01:54.585Z,3.70
2022-09-15T07:04:22.573Z,4.07
2022-09-15T07:06:50.643Z,3.67
2022-09-15T07:09:17.976Z,4.07
2022-09-15T07:11:45.474Z,3.40
2022-09-15T07:14:12.989Z,4.38
2022-09-15T07:16:40.419Z,4.30
2022-09-15T07:19:07.885Z,4.30
2022-09-15T07:21:35.509Z,5.53
2022-09-15T07:24:07.051Z,7.55
2022-09-15T07:26:35.306Z,10.43
2022-09-15T07:29:06.056Z,10.00
2022-09-15T07:31:35.647Z,10.13
2022-09-15T07:34:03.325Z,12.10
2022-09-15T07:36:31.400Z,13.35
2022-09-15T07:38:58.837Z,11.23
2022-09-15T07:41:31.231Z,10.90
2022-09-15T07:44:00.389Z,11.02
2022-09-15T07:46:31.220Z,9.13
2022-09-15T07:48:59.121Z,6.70
2022-09-15T07:51:26.595Z,8.18
2022-09-15T07:53:54.583Z,7.07
2022-09-15T07:56:23.871Z,6.10
2022-09-15T07:58:51.737Z,6.00
2022-09-15T08:01:20.634Z,6.03
2022-09-15T08:03:50.187Z,6.03
2022-09-15T08:06:19.980Z,5.85
2022-09-15T08:08:47.758Z,5.57
2022-09-15T08:11:19.214Z,5.93
2022-09-15T08:13:49.428Z,4.47
2022-09-15T08:16:20.481Z,4.97
2022-09-15T08:18:49.003Z,3.70
2022-09-15T08:21:20.293Z,3.78
2022-09-15T08:23:56.266Z,3.95
2022-09-15T08:26:25.229Z,3.63
2022-09-15T08:28:52.827Z,3.90
2022-09-15T08:31:24.277Z,4.03
2022-09-15T08:33:54.262Z,3.97
2022-09-15T08:36:22.321Z,4.55
2022-09-15T08:38:49.655Z,4.18
2022-09-15T08:41:31.426Z,4.50
2022-09-15T08:44:29.037Z,4.63
2022-09-15T08:47:06.919Z,4.82
2022-09-15T08:49:51.145Z,4.88
2022-09-15T08:52:26.902Z,5.13
2022-09-15T08:54:58.640Z,4.97
2022-09-15T08:57:26.311Z,4.78
2022-09-15T08:59:54.981Z,5.03
2022-09-15T09:02:59.834Z,5.40
2022-09-15T09:05:34.327Z,4.97
2022-09-15T09:08:26.272Z,5.80
2022-09-15T09:10:57.902Z,6.13
2022-09-15T09:13:49.403Z,5.90
2022-09-15T09:16:31.997Z,4.65
2022-09-15T09:18:59.260Z,4.20
2022-09-15T09:21:39.280Z,4.00
2022-09-15T09:24:16.472Z,5.28
2022-09-15T09:26:49.600Z,4.00
2022-09-15T09:31:55.647Z,3.42
2022-09-15T09:34:31.353Z,2.90
2022-09-15T09:37:00.681Z,3.83
2022-09-15T09:39:28.727Z,3.67
2022-09-15T09:41:56.916Z,4.40
2022-09-15T09:44:31.950Z,3.40
2022-09-15T09:47:00.974Z,3.50
2022-09-15T09:49:35.580Z,3.10
2022-09-15T09:52:04.770Z,3.20
2022-09-15T09:54:34.241Z,2.47
2022-09-15T09:57:13.575Z,3.05
2022-09-15T09:59:43.624Z,3.50
2022-09-15T10:02:10.992Z,3.40
2022-09-15T10:04:39.850Z,2.42
2022-09-15T10:07:08.392Z,2.70
2022-09-15T10:09:37.555Z,2.75
2022-09-15T10:12:06.396Z,2.58
2022-09-15T10:14:40.753Z,2.60
2022-09-15T10:17:17.188Z,2.65
2022-09-15T10:19:52.936Z,2.85
2022-09-15T10:22:41.543Z,2.80
2022-09-15T10:25:57.597Z,2.40
2022-09-15T10:28:26.209Z,2.47
2022-09-15T10:31:13.316Z,2.05
2022-09-15T10:33:42.708Z,1.83
2022-09-15T10:36:33.365Z,2.35
2022-09-15T10:39:14.586Z,2.08
2022-09-15T10:42:05.298Z,2.58
2022-09-15T10:44:59.117Z,2.65
2022-09-15T10:47:29.620Z,2.50
2022-09-15T10:50:04.370Z,2.25
2022-09-15T10:52:50.039Z,2.30
2022-09-15T10:55:51.592Z,2.30
2022-09-15T10:59:03.735Z,2.08
2022-09-15T11:01:31.153Z,2.00
2022-09-15T11:04:42.646Z,2.28
2022-09-15T11:07:35.994Z,2.80
2022-09-15T11:10:11.072Z,2.85
2022-09-15T11:13:11.875Z,2.75
2022-09-15T11:15:50.508Z,3.10
2022-09-15T11:18:36.125Z,4.03
2022-09-15T11:21:19.444Z,3.78
2022-09-15T11:26:19.429Z,3.60
2022-09-15T11:28:58.310Z,3.60
2022-09-15T11:31:30.789Z,4.93
2022-09-15T11:34:03.652Z,4.90
2022-09-15T11:36:40.704Z,4.05
2022-09-15T11:39:17.869Z,3.90
2022-09-15T11:42:01.825Z,2.90
2022-09-15T11:44:42.966Z,2.80
2022-09-15T11:47:10.324Z,2.70
2022-09-15T11:49:54.293Z,2.47
2022-09-15T11:52:46.227Z,2.00
2022-09-15T11:55:32.111Z,1.75
2022-09-15T11:58:22.479Z,2.28
2022-09-15T12:01:03.105Z,2.03
2022-09-15T12:03:33.116Z,2.05
2022-09-15T12:06:08.224Z,2.10
2022-09-15T12:08:52.393Z,2.83
2022-09-15T12:11:23.526Z,2.22
2022-09-15T12:13:52.205Z,2.30
2022-09-15T12:16:21.383Z,2.40
2022-09-15T12:18:50.583Z,2.13
2022-09-15T12:21:24.239Z,1.98
2022-09-15T12:24:09.414Z,2.10
2022-09-15T12:26:38.059Z,2.85
2022-09-15T12:29:42.490Z,1.95
2022-09-15T12:32:42.544Z,1.75
2022-09-15T12:35:15.754Z,2.00
2022-09-15T12:37:53.057Z,2.00
2022-09-15T12:40:36.135Z,2.22
2022-09-15T12:43:18.588Z,2.05
2022-09-15T12:46:00.723Z,2.23
2022-09-15T12:48:34.689Z,2.03
2022-09-15T12:51:05.153Z,2.22
2022-09-15T12:56:11.784Z,2.78
2022-09-15T12:58:42.131Z,1.55
2022-09-15T13:01:56.071Z,1.77
2022-09-15T13:04:46.253Z,2.65
2022-09-15T13:07:16.489Z,1.90
2022-09-15T13:09:55.669Z,2.40
2022-09-15T13:12:29.857Z,2.05
2022-09-15T13:15:01.740Z,2.60
2022-09-15T13:17:30.994Z,2.10
2022-09-15T13:20:07.298Z,2.20
2022-09-15T13:22:37.845Z,2.53
2022-09-15T13:25:13.850Z,2.20
2022-09-15T13:28:00.472Z,2.85
2022-09-15T13:30:36.917Z,2.30
2022-09-15T13:40:02.714Z,2.90
2022-09-15T13:42:33.360Z,2.80
2022-09-15T13:45:29.610Z,3.30
2022-09-15T13:48:15.269Z,3.30
2022-09-15T13:50:55.600Z,2.83
2022-09-15T13:54:02.960Z,2.35
2022-09-15T13:56:39.991Z,2.80
2022-09-15T13:59:16.948Z,2.95
2022-09-15T14:01:45.330Z,2.70
2022-09-15T14:04:20.946Z,3.65
2022-09-15T14:06:51.913Z,2.95
2022-09-15T14:09:23.812Z,3.08
2022-09-15T14:11:55.334Z,2.75
2022-09-15T14:14:35.127Z,2.75
2022-09-15T14:17:03.069Z,3.22
2022-09-15T14:19:38.226Z,3.35
2022-09-15T14:22:17.870Z,3.63
2022-09-15T14:24:45.418Z,3.13
2022-09-15T14:27:21.630Z,2.90
2022-09-15T14:29:54.419Z,2.50
2022-09-15T14:32:22.462Z,2.20
2022-09-15T14:34:51.029Z,2.72
2022-09-15T14:37:24.061Z,2.20
2022-09-15T14:42:22.859Z,2.63
2022-09-15T14:47:40.507Z,2.50
2022-09-15T14:50:17.855Z,2.63
2022-09-15T14:52:51.895Z,2.50
2022-09-15T14:55:28.730Z,2.80
2022-09-15T14:57:59.189Z,3.08
2022-09-15T15:00:32.166Z,3.28
2022-09-15T15:03:22.441Z,2.45
2022-09-15T15:06:02.764Z,3.85
2022-09-15T15:08:35.322Z,2.17
2022-09-15T15:11:06.792Z,2.83
2022-09-15T15:13:36.728Z,2.15
2022-09-15T15:16:18.818Z,2.58
2022-09-15T15:18:46.558Z,2.25
2022-09-15T15:21:28.957Z,2.45
2022-09-15T15:23:56.669Z,2.30
2022-09-15T15:26:36.157Z,2.53
2022-09-15T15:29:08.459Z,2.08
2022-09-15T15:31:40.159Z,2.87
2022-09-15T15:34:24.613Z,2.28
2022-09-15T15:36:52.001Z,2.13
2022-09-15T15:39:24.968Z,2.35
2022-09-15T15:42:02.518Z,2.20
2022-09-15T15:44:31.510Z,2.28
2022-09-15T15:47:01.984Z,1.80
2022-09-15T15:49:32.516Z,2.85
2022-09-15T15:52:01.782Z,2.08
2022-09-15T15:54:29.534Z,2.20
2022-09-15T15:57:20.221Z,2.67
2022-09-15T15:59:47.728Z,1.73
2022-09-15T16:02:15.125Z,2.00
2022-09-15T16:04:42.522Z,2.10
2022-09-15T16:07:17.795Z,1.90
2022-09-15T16:09:46.390Z,2.30
2022-09-15T16:12:14.360Z,2.60
2022-09-15T16:14:42.208Z,2.30
2022-09-15T16:17:10.323Z,2.30
2022-09-15T16:19:37.775Z,2.60
2022-09-15T16:22:05.475Z,1.98
2022-09-15T16:24:33.244Z,2.83
2022-09-15T16:27:00.710Z,1.88
2022-09-15T16:29:36.023Z,2.10
2022-09-15T16:32:06.013Z,2.75
2022-09-15T16:34:33.471Z,1.92
2022-09-15T16:37:00.883Z,2.28
2022-09-15T16:39:28.262Z,2.38
2022-09-15T16:41:55.767Z,1.88
2022-09-15T16:44:23.294Z,2.55
2022-09-15T16:46:50.999Z,1.83
2022-09-15T16:49:18.605Z,2.65
2022-09-15T16:51:45.986Z,2.03
2022-09-15T16:54:16.448Z,2.95
2022-09-15T16:56:45.863Z,2.53
2022-09-15T16:59:13.314Z,2.60
2022-09-15T17:01:41.116Z,2.50
2022-09-15T17:04:15.828Z,2.97
2022-09-15T17:06:43.370Z,3.13
2022-09-15T17:09:10.926Z,2.58
2022-09-15T17:11:38.335Z,2.65
2022-09-15T17:14:06.244Z,3.17
2022-09-15T17:16:33.582Z,2.13
2022-09-15T17:19:00.931Z,2.45
2022-09-15T17:21:28.712Z,3.67
2022-09-15T17:23:56.062Z,2.97
2022-09-15T17:26:31.057Z,2.92
2022-09-15T17:28:58.952Z,3.13
2022-09-15T17:31:27.878Z,2.72
2022-09-15T17:33:55.608Z,2.58
2022-09-15T17:36:23.039Z,2.58
2022-09-15T17:38:50.428Z,2.50
2022-09-15T17:41:20.667Z,2.22
2022-09-15T17:43:48.424Z,3.15
2022-09-15T17:46:16.450Z,2.38
2022-09-15T17:48:43.873Z,2.42
2022-09-15T17:51:19.885Z,2.13
2022-09-15T17:53:47.873Z,2.40
2022-09-15T17:56:15.516Z,2.67
2022-09-15T17:58:43.248Z,2.55
2022-09-15T18:01:15.193Z,2.88
2022-09-15T18:03:44.822Z,2.20
2022-09-15T18:06:12.976Z,1.95
2022-09-15T18:08:40.751Z,3.00
2022-09-15T18:11:08.766Z,2.35
2022-09-15T18:13:37.374Z,2.60
2022-09-15T18:16:06.765Z,3.40
2022-09-15T18:18:34.509Z,2.20
2022-09-15T18:21:08.495Z,3.22
2022-09-15T18:23:56.054Z,2.67
2022-09-15T18:26:26.320Z,2.55
2022-09-15T18:28:54.690Z,2.17
2022-09-15T18:31:22.778Z,2.33
2022-09-15T18:33:50.297Z,2.75
2022-09-15T18:36:18.075Z,2.88
2022-09-15T18:38:45.752Z,2.90
2022-09-15T18:41:14.711Z,3.05
2022-09-15T18:43:43.803Z,2.80
2022-09-15T18:46:11.333Z,2.30
2022-09-15T18:48:38.942Z,3.17
2022-09-15T18:51:10.814Z,2.45
2022-09-15T18:56:14.728Z,2.70
2022-09-15T18:58:42.417Z,2.58
2022-09-15T19:01:10.271Z,2.92
2022-09-15T19:03:44.057Z,2.80
2022-09-15T19:06:12.702Z,2.88
2022-09-15T19:08:40.808Z,2.75
2022-09-15T19:11:09.284Z,2.28
2022-09-15T19:13:36.933Z,2.60
2022-09-15T19:16:08.760Z,3.97
2022-09-15T19:18:36.993Z,3.05
2022-09-15T19:21:10.568Z,3.20
2022-09-15T19:23:39.236Z,3.70
2022-09-15T19:26:09.162Z,2.60
2022-09-15T19:28:36.802Z,3.47
2022-09-15T19:31:04.305Z,3.83
2022-09-15T19:33:32.216Z,3.53
2022-09-15T19:36:17.538Z,2.88
2022-09-15T19:38:52.730Z,3.47
2022-09-15T19:41:20.455Z,2.70
2022-09-15T19:43:48.058Z,2.85
2022-09-15T19:46:19.414Z,2.70
2022-09-15T19:48:49.970Z,2.13
2022-09-15T19:51:18.936Z,2.97
2022-09-15T19:53:46.998Z,3.83
2022-09-15T19:56:22.277Z,3.72
2022-09-15T19:58:49.869Z,3.22
2022-09-15T20:01:18.336Z,3.42
2022-09-15T20:06:32.627Z,2.50
2022-09-15T20:09:00.504Z,2.92
2022-09-15T20:11:29.627Z,2.92
2022-09-15T20:13:57.530Z,2.90
2022-09-15T20:16:25.213Z,3.72
2022-09-15T20:18:54.012Z,3.38
2022-09-15T20:21:46.305Z,3.42
2022-09-15T20:24:16.467Z,3.35
2022-09-15T20:26:44.239Z,3.78
2022-09-15T20:29:12.338Z,4.32
2022-09-15T20:31:40.175Z,3.20
2022-09-15T20:34:07.651Z,4.00
2022-09-15T20:36:38.455Z,3.38
2022-09-15T20:39:10.604Z,4.32
2022-09-15T20:41:38.785Z,3.50
2022-09-15T20:44:09.450Z,3.63
2022-09-15T20:46:37.427Z,3.15
2022-09-15T20:49:05.402Z,3.80
2022-09-15T20:51:33.824Z,3.90
2022-09-15T20:54:04.267Z,3.45
2022-09-15T20:56:34.919Z,3.28
2022-09-15T20:59:04.442Z,3.17
2022-09-15T21:01:37.535Z,3.47
2022-09-15T21:04:06.844Z,3.30
2022-09-15T21:06:34.745Z,3.53
2022-09-15T21:09:02.755Z,3.20
2022-09-15T21:11:30.790Z,3.63
2022-09-15T21:13:59.010Z,3.50
2022-09-15T21:16:28.474Z,3.38
2022-09-15T21:18:57.994Z,4.10
2022-09-15T21:21:29.920Z,3.80
2022-09-15T21:24:04.001Z,3.33
2022-09-15T21:27:00.371Z,3.33
2022-09-15T21:29:28.543Z,3.60
2022-09-15T21:31:56.368Z,4.05
2022-09-15T21:34:24.198Z,3.60
2022-09-15T21:36:53.640Z,4.07
2022-09-15T21:39:21.592Z,3.38
2022-09-15T21:41:49.802Z,4.15
2022-09-15T21:44:17.537Z,3.30
2022-09-15T21:46:46.970Z,3.30
2022-09-15T21:49:14.724Z,3.75
2022-09-15T21:51:42.250Z,3.55
2022-09-15T21:54:10.195Z,2.97
2022-09-15T21:56:37.749Z,3.22
2022-09-15T21:59:05.417Z,4.00
2022-09-15T22:01:33.327Z,3.78
2022-09-15T22:04:03.344Z,3.80
2022-09-15T22:06:40.576Z,3.80
2022-09-15T22:09:14.788Z,3.22
2022-09-15T22:11:42.301Z,3.78
2022-09-15T22:14:10.433Z,4.18
2022-09-15T22:16:39.507Z,3.80
2022-09-15T22:19:09.803Z,4.18
2022-09-15T22:21:41.624Z,3.58
2022-09-15T22:24:12.865Z,3.78
2022-09-15T22:26:42.498Z,4.10
2022-09-15T22:29:10.652Z,3.55
2022-09-15T22:31:38.700Z,3.40
2022-09-15T22:34:06.231Z,3.20
2022-09-15T22:36:34.269Z,2.55
2022-09-15T22:39:06.024Z,2.97
2022-09-15T22:41:37.091Z,2.63
2022-09-15T22:44:06.287Z,3.22
2022-09-15T22:46:33.923Z,3.03
2022-09-15T22:49:01.818Z,3.67
2022-09-15T22:51:29.662Z,3.22
2022-09-15T22:53:57.674Z,3.30
2022-09-15T22:56:26.270Z,3.35
2022-09-15T22:58:55.840Z,3.25
2022-09-15T23:01:26.764Z,2.53
2022-09-15T23:03:56.625Z,3.33
2022-09-15T23:06:26.668Z,3.20
2022-09-15T23:08:56.282Z,2.53
2022-09-15T23:11:24.884Z,2.67
2022-09-15T23:13:53.372Z,2.53
2022-09-15T23:16:22.488Z,2.80
2022-09-15T23:18:51.189Z,2.53
2022-09-15T23:21:19.220Z,2.63
2022-09-15T23:23:48.829Z,2.60
2022-09-15T23:26:18.406Z,2.08
2022-09-15T23:28:46.538Z,2.70
2022-09-15T23:31:14.484Z,2.65
2022-09-15T23:33:42.677Z,2.70
2022-09-15T23:36:13.499Z,2.97
2022-09-15T23:38:43.334Z,2.25
2022-09-15T23:41:11.910Z,2.50
2022-09-15T23:43:39.701Z,2.00
2022-09-15T23:46:07.566Z,2.85
2022-09-15T23:48:35.487Z,2.28
2022-09-15T23:51:03.778Z,2.47
2022-09-15T23:53:31.281Z,2.22
2022-09-15T23:55:58.714Z,2.83
2022-09-15T23:58:26.139Z,3.05
